Latest Coastal Weather Observations for Dunalley

IDT60701

Issued at 5:02 am EST Sunday 5 July 2015 (issued every 10 minutes, with the page automatically refreshed every 10 minutes)

About coastal observations | Map of coastal stations | Coastal observations for TAS | Marine services | Other Formats
Station Details ID: 094254 Name: DUNALLEY (STROUD POINT) Lat: -42.90 Lon: 147.79 Height: 12.43 m
Data from the previous 72 hours. | See also: Recent months at Dunalley
Date/Time
EST
Temp

°C
Wind Pressure Rain
since 9am
mm
Weather Cloud Vis
km
Sea
Height
m
Swell
Dir
 
Speed
knots
Gust
knots
hPa Trend Height
m
Period
s
Dir
05/05:00am 7.5 WNW 5 8 1013.1 - 0.0 - - - - - - -
05/04:30am 7.6 WNW 6 9 1013.1 - 0.0 - - - - - - -
05/04:00am 7.6 WNW 5 7 1013.4 - 0.0 - - - - - - -
05/03:30am 8.1 NW 7 10 1013.3 - 0.0 - - - - - - -
05/03:00am 8.1 NW 8 11 1013.7 - 0.0 - - - - - - -
05/02:30am 8.1 WNW 8 11 1013.7 - 0.0 - - - - - - -
05/02:00am 8.3 WNW 9 13 1013.8 - 0.0 - - - - - - -
05/01:30am 8.2 WNW 9 13 1013.6 - 0.0 - - - - - - -
05/01:00am 6.5 W 5 7 1013.6 - 0.0 - - - - - - -
05/12:30am 7.6 WNW 7 9 1013.5 - 0.0 - - - - - - -
05/12:00am 7.7 NW 6 8 1013.6 - 0.0 - - - - - - -
 
Date/Time
EST
Temp

°C
Wind Pressure Rain
since 9am
mm
Weather Cloud Vis
km
Sea
Height
m
Swell
Dir
 
Speed
knots
Gust
knots
hPa Trend Height
m
Period
s
Dir
04/11:30pm 7.6 WNW 7 10 1013.6 - 0.0 - - - - - - -
04/11:00pm 7.5 W 7 10 1013.5 - 0.0 - - - - - - -
04/10:30pm 7.7 WNW 6 8 1013.8 - 0.0 - - - - - - -
04/10:00pm 8.0 W 8 11 1013.9 - 0.0 - - - - - - -
04/09:30pm 7.4 W 8 9 1013.9 - 0.0 - - - - - - -
04/09:00pm 7.8 W 7 10 1013.8 - 0.0 - - - - - - -
04/08:30pm 8.6 WNW 10 13 1013.7 - 0.0 - - - - - - -
04/08:00pm 8.4 WNW 10 12 1013.6 - 0.0 - - - - - - -
04/07:30pm 9.7 WNW 9 14 1013.6 - 0.0 - - - - - - -
04/07:00pm 9.5 W 13 15 1013.3 - 0.0 - - - - - - -
04/06:30pm 9.1 W 11 13 1013.1 - 0.0 - - - - - - -
04/06:00pm 9.8 W 12 16 1012.9 - 0.0 - - - - - - -
04/05:30pm 9.6 WSW 11 14 1012.8 - 0.0 - - - - - - -
04/05:00pm 9.8 W 7 11 1012.7 - 0.0 - - - - - - -
04/04:30pm 10.2 W 4 6 1012.5 - 0.0 - - - - - - -
04/04:00pm 10.8 WSW 16 21 1011.9 - 0.0 - - - - - - -
04/03:37pm 10.7 WSW 23 33 1011.2 - 0.0 - - - - - - -
04/03:30pm 10.9 WSW 25 33 1011.0 - 0.0 - - - - - - -
04/03:00pm 11.2 WSW 21 25 1011.1 - 0.0 - - - - - - -
04/02:30pm 11.5 WSW 17 25 1011.1 - 0.0 - - - - - - -
04/02:00pm 11.6 SW 16 19 1011.0 - 0.0 - - - - - - -
04/01:30pm 11.6 WSW 20 24 1010.5 - 0.0 - - - - - - -
04/01:00pm 11.6 WSW 18 20 1010.4 - 0.0 - - - - - - -
04/12:30pm 10.9 WSW 16 18 1010.2 - 0.0 - - - - - - -
04/12:00pm 11.2 WSW 15 19 1010.5 - 0.0 - - - - - - -
04/11:30am 12.0 WSW 16 20 1010.7 - 0.0 - - - - - - -
04/11:00am 12.0 WSW 14 18 1010.9 - 0.0 - - - - - - -
04/10:30am 12.2 WSW 14 17 1011.0 - 0.0 - - - - - - -
04/10:00am 12.2 NW 9 11 1010.5 - 0.0 - - - - - - -
04/09:30am 12.9 NNW 8 11 1010.2 - 0.0 - - - - - - -
04/09:00am 11.5 NNW 5 6 1010.1 - 0.0 - - - - - - -
04/08:30am 10.1 NNW 4 5 1009.8 - 0.0 - - - - - - -
04/08:00am 10.1 NNW 4 6 1009.7 - 0.0 - - - - - - -
04/07:30am 10.5 NNW 3 4 1009.4 - 0.0 - - - - - - -
04/07:00am 8.9 NNW 4 5 1009.0 - 0.0 - - - - - - -
04/06:30am 8.9 NNW 5 8 1009.0 - 0.0 - - - - - - -
04/06:00am 11.1 NNW 7 12 1008.8 - 0.0 - - - - - - -
04/05:30am 10.7 NNW 2 5 1008.6 - 0.0 - - - - - - -
04/05:00am 11.0 N 4 7 1008.5 - 0.0 - - - - - - -
04/04:30am 10.7 NNW 6 9 1008.3 - 0.0 - - - - - - -
04/04:00am 11.2 NNW 7 11 1008.5 - 0.0 - - - - - - -
04/03:30am 11.0 NNW 8 11 1009.0 - 0.0 - - - - - - -
04/03:00am 10.7 NW 6 10 1009.5 - 0.0 - - - - - - -
04/02:30am 10.8 NNW 9 14 1010.0 - 0.0 - - - - - - -
04/02:00am 10.6 NW 10 15 1010.4 - 0.0 - - - - - - -
04/01:30am 10.2 NW 15 22 1010.4 - 0.0 - - - - - - -
04/01:00am 9.9 NW 16 23 1010.6 - 0.0 - - - - - - -
04/12:30am 10.0 NW 18 26 1011.0 - 0.0 - - - - - - -
04/12:00am 10.0 WNW 19 29 1011.5 - 0.0 - - - - - - -
 
Date/Time
EST
Temp

°C
Wind Pressure Rain
since 9am
mm
Weather Cloud Vis
km
Sea
Height
m
Swell
Dir
 
Speed
knots
Gust
knots
hPa Trend Height
m
Period
s
Dir
03/11:57pm 10.0 NW 17 29 1011.7 - 0.0 - - - - - - -
03/11:30pm 9.7 NNW 6 22 1012.3 - 0.0 - - - - - - -
03/11:00pm 9.6 NNW 9 19 1012.6 - 0.0 - - - - - - -
03/10:30pm 9.7 NW 15 23 1012.7 - 0.0 - - - - - - -
03/10:00pm 9.4 NW 15 21 1013.0 - 0.0 - - - - - - -
03/09:30pm 9.3 WNW 13 21 1013.6 - 0.0 - - - - - - -
03/09:00pm 9.3 WNW 13 19 1013.8 - 0.0 - - - - - - -
03/08:30pm 9.1 NW 8 12 1014.2 - 0.0 - - - - - - -
03/08:00pm 9.2 WNW 12 18 1014.5 - 0.0 - - - - - - -
03/07:30pm 9.4 WNW 16 22 1014.7 - 0.0 - - - - - - -
03/07:02pm 9.8 NW 15 25 1014.7 - 0.0 - - - - - - -
03/07:00pm 9.7 NW 14 25 1014.7 - 0.0 - - - - - - -
03/06:30pm 9.7 NW 13 20 1015.5 - 0.0 - - - - - - -
03/06:00pm 9.7 WNW 15 20 1015.4 - 0.0 - - - - - - -
03/05:30pm 10.0 NW 12 19 1015.4 - 0.0 - - - - - - -
03/05:00pm 10.3 WNW 14 20 1015.8 - 0.0 - - - - - - -
03/04:30pm 9.8 WNW 7 15 1015.7 - 0.0 - - - - - - -
03/04:00pm 10.1 WNW 11 17 1015.9 - 0.0 - - - - - - -
03/03:30pm 10.6 NW 8 14 1016.3 - 0.0 - - - - - - -
03/03:00pm 11.1 NW 6 10 1016.8 - 0.0 - - - - - - -
03/02:30pm 11.4 WNW 9 14 1017.1 - 0.0 - - - - - - -
03/02:00pm 11.4 WNW 10 13 1017.5 - 0.0 - - - - - - -
03/01:30pm 10.6 NW 6 11 1018.3 - 0.0 - - - - - - -
03/01:00pm 10.2 WNW 10 14 1019.0 - 0.0 - - - - - - -
03/12:30pm 10.3 WNW 11 16 1019.3 - 0.0 - - - - - - -
03/12:00pm 10.3 WNW 10 16 1020.0 - 0.0 - - - - - - -
03/11:30am 9.9 WNW 10 15 1020.3 - 0.0 - - - - - - -
03/11:00am 9.5 WNW 11 15 1020.9 - 0.0 - - - - - - -
03/10:30am 8.8 NW 11 15 1021.3 - 0.0 - - - - - - -
03/10:00am 8.3 NW 11 19 1021.5 - 0.0 - - - - - - -
03/09:30am 7.6 NW 13 18 1021.5 - 0.0 - - - - - - -
03/09:00am 7.2 NW 9 14 1021.8 - 0.2 - - - - - - -
03/08:30am 6.5 NW 9 14 1021.7 - 0.2 - - - - - - -
03/08:00am 6.0 NW 7 11 1022.0 - 0.2 - - - - - - -
03/07:30am 5.7 NW 9 12 1021.8 - 0.2 - - - - - - -
03/07:00am 5.8 NW 8 12 1021.6 - 0.2 - - - - - - -
03/06:30am 5.4 WNW 7 13 1021.4 - 0.2 - - - - - - -
03/06:00am 5.3 WNW 8 11 1021.2 - 0.2 - - - - - - -
03/05:30am 5.5 WNW 9 12 1021.3 - 0.2 - - - - - - -
03/05:00am 5.2 WNW 9 12 1021.4 - 0.2 - - - - - - -
03/04:30am 4.9 W 4 7 1021.4 - 0.2 - - - - - - -
03/04:00am 5.1 WNW 8 11 1021.7 - 0.2 - - - - - - -
03/03:30am 5.1 WNW 9 12 1021.9 - 0.2 - - - - - - -
03/03:00am 4.8 W 10 12 1022.3 - 0.2 - - - - - - -
03/02:30am 5.3 WNW 10 13 1022.4 - 0.2 - - - - - - -
03/02:00am 5.0 W 10 13 1022.1 - 0.2 - - - - - - -
03/01:30am 5.7 W 12 18 1022.2 - 0.2 - - - - - - -
03/01:00am 5.8 W 12 16 1022.1 - 0.2 - - - - - - -
03/12:30am 6.2 W 13 17 1022.1 - 0.2 - - - - - - -
03/12:00am 6.8 W 18 21 1022.0 - 0.2 - - - - - - -
 
Date/Time
EST
Temp

°C
Wind Pressure Rain
since 9am
mm
Weather Cloud Vis
km
Sea
Height
m
Swell
Dir
 
Speed
knots
Gust
knots
hPa Trend Height
m
Period
s
Dir
02/11:30pm 7.2 W 20 24 1022.1 - 0.2 - - - - - - -
02/11:00pm 6.7 W 20 24 1021.6 - 0.2 - - - - - - -
02/10:30pm 6.7 W 20 23 1021.6 - 0.2 - - - - - - -
02/10:00pm 6.8 W 22 26 1021.2 - 0.2 - - - - - - -
02/09:30pm 6.3 W 19 25 1021.1 - 0.2 - - - - - - -
02/09:00pm 6.6 W 20 23 1020.9 - 0.2 - - - - - - -
02/08:30pm 6.7 W 19 23 1020.8 - 0.2 - - - - - - -
02/08:00pm 6.4 W 15 20 1020.3 - 0.2 - - - - - - -
02/07:30pm 6.8 W 19 23 1020.2 - 0.2 - - - - - - -
02/07:00pm 6.9 W 19 23 1019.7 - 0.2 - - - - - - -
02/06:30pm 6.9 WSW 18 23 1019.1 - 0.2 - - - - - - -
02/06:00pm 7.0 WSW 18 21 1018.6 - 0.2 - - - - - - -
02/05:30pm 7.0 WSW 22 27 1018.5 - 0.2 - - - - - - -
02/05:00pm 7.2 W 19 26 1018.0 - 0.2 - - - - - - -
02/04:30pm 7.5 WSW 20 24 1017.4 - 0.2 - - - - - - -
02/04:00pm 7.7 WSW 20 24 1017.1 - 0.2 - - - - - - -
02/03:30pm 7.8 WSW 24 28 1016.3 - 0.2 - - - - - - -
02/03:00pm 7.2 SW 22 27 1015.6 - 0.2 - - - - - - -
02/02:30pm 8.1 WSW 27 32 1015.1 - 0.2 - - - - - - -
02/02:00pm 8.2 WSW 23 28 1014.7 - 0.2 - - - - - - -
02/01:30pm 7.8 WSW 22 27 1014.4 - 0.2 - - - - - - -
02/01:00pm 8.1 W 18 21 1014.1 - 0.0 - - - - - - -
02/12:30pm 7.5 W 22 26 1013.7 - 0.0 - - - - - - -
02/12:00pm 7.0 WSW 23 27 1013.4 - 0.0 - - - - - - -
02/11:30am 6.9 WSW 23 29 1013.3 - 0.0 - - - - - - -
02/11:00am 7.9 WSW 23 27 1012.6 - 0.0 - - - - - - -
02/10:41am 8.1 W 17 29 1012.3 - 0.0 - - - - - - -
02/10:30am 7.9 W 14 19 1012.1 - 0.0 - - - - - - -
02/10:00am 7.8 WNW 13 18 1011.8 - 0.0 - - - - - - -
02/09:30am 7.2 WNW 14 20 1011.3 - 0.0 - - - - - - -
02/09:00am 6.7 WNW 14 17 1010.6 - 2.6 - - - - - - -
02/08:30am 6.2 WNW 11 18 1010.2 - 2.6 - - - - - - -
02/08:00am 5.9 WNW 10 15 1009.8 - 2.6 - - - - - - -
02/07:30am 6.3 W 17 24 1008.9 - 2.6 - - - - - - -
02/07:00am 6.5 W 21 25 1008.2 - 2.6 - - - - - - -
02/06:30am 6.1 WNW 15 22 1008.2 - 2.6 - - - - - - -
02/06:00am 6.2 W 15 19 1007.8 - 2.6 - - - - - - -
02/05:30am 6.0 WNW 14 20 1007.6 - 2.6 - - - - - - -

Other Formats:

Comma delimited format used in spreadsheet applications
http://www.bom.gov.au/fwo/IDT60701/IDT60701.94951.axf

JavaScript Object Notation format (JSON) in row-major order
http://www.bom.gov.au/fwo/IDT60701/IDT60701.94951.json